createdAt,value
2023-01-11T00:00:30.812Z,2.81
2023-01-11T00:03:00.095Z,2.95
2023-01-11T00:05:27.462Z,2.92
2023-01-11T00:07:54.435Z,3.01
2023-01-11T00:10:21.630Z,3.02
2023-01-11T00:12:49.011Z,2.76
2023-01-11T00:15:16.677Z,3.01
2023-01-11T00:17:43.503Z,2.97
2023-01-11T00:20:10.860Z,3.05
2023-01-11T00:22:38.167Z,3.17
2023-01-11T00:25:05.401Z,3.19
2023-01-11T00:27:32.159Z,3.22
2023-01-11T00:29:58.959Z,3.12
2023-01-11T00:32:27.424Z,3.27
2023-01-11T00:34:54.607Z,3.25
2023-01-11T00:37:21.910Z,3.16
2023-01-11T00:39:48.874Z,3.24
2023-01-11T00:42:34.532Z,3.27
2023-01-11T00:45:19.859Z,3.28
2023-01-11T00:48:00.324Z,3.32
2023-01-11T00:50:30.115Z,3.24
2023-01-11T00:52:58.201Z,3.42
2023-01-11T00:55:25.820Z,3.37
2023-01-11T00:57:53.179Z,3.42
2023-01-11T01:00:21.145Z,3.31
2023-01-11T01:02:48.793Z,3.43
2023-01-11T01:05:16.596Z,3.39
2023-01-11T01:07:43.831Z,3.38
2023-01-11T01:10:12.849Z,3.47
2023-01-11T01:12:58.300Z,3.41
2023-01-11T01:15:25.665Z,3.45
2023-01-11T01:17:56.093Z,3.33
2023-01-11T01:20:24.350Z,3.39
2023-01-11T01:22:51.530Z,3.39
2023-01-11T01:25:19.170Z,3.35
2023-01-11T01:27:45.914Z,3.26
2023-01-11T01:30:13.444Z,3.40
2023-01-11T01:32:40.194Z,3.39
2023-01-11T01:35:07.351Z,3.47
2023-01-11T01:37:34.102Z,3.44
2023-01-11T01:40:00.908Z,3.39
2023-01-11T01:42:27.819Z,3.42
2023-01-11T01:45:08.185Z,3.55
2023-01-11T01:47:54.649Z,3.48
2023-01-11T01:50:37.471Z,3.51
2023-01-11T01:53:10.033Z,3.50
2023-01-11T01:55:42.397Z,3.46
2023-01-11T01:58:19.657Z,3.46
2023-01-11T02:00:46.492Z,3.49
2023-01-11T02:03:19.423Z,3.30
2023-01-11T02:05:46.850Z,3.30
2023-01-11T02:08:35.657Z,3.53
2023-01-11T02:11:04.122Z,3.55
2023-01-11T02:13:32.184Z,3.59
2023-01-11T02:16:08.360Z,3.44
2023-01-11T02:18:37.265Z,3.56
2023-01-11T02:21:32.735Z,3.42
2023-01-11T02:24:17.429Z,3.56
2023-01-11T02:26:59.269Z,3.54
2023-01-11T02:29:49.836Z,3.54
2023-01-11T02:32:39.936Z,3.60
2023-01-11T02:35:31.688Z,3.52
2023-01-11T02:38:02.096Z,3.61
2023-01-11T02:40:38.431Z,3.61
2023-01-11T02:43:32.505Z,3.56
2023-01-11T02:46:33.930Z,3.63
2023-01-11T02:49:21.607Z,3.56
2023-01-11T02:51:56.598Z,3.65
2023-01-11T02:54:24.444Z,3.67
2023-01-11T02:56:56.427Z,3.63
2023-01-11T02:59:28.800Z,3.66
2023-01-11T03:01:55.871Z,3.59
2023-01-11T03:04:24.246Z,3.68
2023-01-11T03:06:59.365Z,3.66
2023-01-11T03:09:44.701Z,3.64
2023-01-11T03:12:57.757Z,3.69
2023-01-11T03:15:55.764Z,3.70
2023-01-11T03:18:53.932Z,3.70
2023-01-11T03:21:38.540Z,3.71
2023-01-11T03:24:17.894Z,3.64
2023-01-11T03:27:06.060Z,3.72
2023-01-11T03:29:40.011Z,3.60
2023-01-11T03:32:22.297Z,3.71
2023-01-11T03:35:04.856Z,3.66
2023-01-11T03:37:36.315Z,3.74
2023-01-11T03:40:24.231Z,3.74
2023-01-11T03:43:11.840Z,3.73
2023-01-11T03:45:56.482Z,3.81
2023-01-11T03:48:47.475Z,3.83
2023-01-11T03:51:20.101Z,3.85
2023-01-11T03:53:49.812Z,3.81
2023-01-11T03:56:21.087Z,3.68
2023-01-11T03:58:48.094Z,3.73
2023-01-11T04:01:15.065Z,3.80
2023-01-11T04:03:41.811Z,3.84
2023-01-11T04:06:11.350Z,3.86
2023-01-11T04:08:38.052Z,3.91
2023-01-11T04:11:05.318Z,4.01
2023-01-11T04:13:34.111Z,4.03
2023-01-11T04:16:01.130Z,4.05
2023-01-11T04:18:27.902Z,4.06
2023-01-11T04:20:54.800Z,4.15
2023-01-11T04:23:21.920Z,4.15
2023-01-11T04:25:48.758Z,4.16
2023-01-11T04:28:15.512Z,4.16
2023-01-11T04:30:42.203Z,4.18
2023-01-11T04:33:10.930Z,4.22
2023-01-11T04:35:37.592Z,4.14
2023-01-11T04:38:04.341Z,4.30
2023-01-11T04:40:31.092Z,4.28
2023-01-11T04:43:02.229Z,4.32
2023-01-11T04:45:30.244Z,4.23
2023-01-11T04:47:57.947Z,4.33
2023-01-11T04:50:26.134Z,4.32
2023-01-11T04:52:52.977Z,4.34
2023-01-11T04:55:20.204Z,4.30
2023-01-11T04:57:47.362Z,4.33
2023-01-11T05:00:15.971Z,4.40
2023-01-11T05:02:43.156Z,4.48
2023-01-11T05:05:11.759Z,4.50
2023-01-11T05:07:39.383Z,4.54
2023-01-11T05:10:06.743Z,4.58
2023-01-11T05:12:33.590Z,4.58
2023-01-11T05:15:00.305Z,4.51
2023-01-11T05:17:27.015Z,4.59
2023-01-11T05:19:53.707Z,4.70
2023-01-11T05:22:20.452Z,4.73
2023-01-11T05:24:47.093Z,4.73
2023-01-11T05:27:13.866Z,4.63
2023-01-11T05:29:40.601Z,4.73
2023-01-11T05:32:07.316Z,4.73
2023-01-11T05:34:34.187Z,4.62
2023-01-11T05:37:01.120Z,4.83
2023-01-11T05:39:27.797Z,4.83
2023-01-11T05:41:54.518Z,4.91
2023-01-11T05:44:39.893Z,4.95
2023-01-11T05:47:06.613Z,4.93
2023-01-11T05:49:33.335Z,4.96
2023-01-11T05:52:00.039Z,5.05
2023-01-11T05:54:26.982Z,4.98
2023-01-11T05:56:57.003Z,5.06
2023-01-11T05:59:23.915Z,5.05
2023-01-11T06:01:50.944Z,5.09
2023-01-11T06:04:17.655Z,5.06
2023-01-11T06:06:44.452Z,5.24
2023-01-11T06:09:11.219Z,5.28
2023-01-11T06:11:37.849Z,5.25
2023-01-11T06:14:04.576Z,5.26
2023-01-11T06:16:31.294Z,5.27
2023-01-11T06:18:57.993Z,5.29
2023-01-11T06:25:00.267Z,5.31
2023-01-11T06:27:26.904Z,5.28
2023-01-11T06:29:53.547Z,5.35
2023-01-11T06:32:20.159Z,5.37
2023-01-11T06:34:46.799Z,5.44
2023-01-11T06:37:13.449Z,5.38
2023-01-11T06:39:40.133Z,5.42
2023-01-11T06:42:06.800Z,5.32
2023-01-11T06:44:33.443Z,5.51
2023-01-11T06:47:00.147Z,5.49
2023-01-11T06:49:26.805Z,5.43
2023-01-11T06:51:53.578Z,5.60
2023-01-11T06:54:23.165Z,5.61
2023-01-11T06:56:49.850Z,5.62
2023-01-11T06:59:16.537Z,5.63
2023-01-11T07:01:43.534Z,5.60
2023-01-11T07:04:10.256Z,5.57
2023-01-11T07:06:36.968Z,5.65
2023-01-11T07:09:03.624Z,5.60
2023-01-11T07:11:32.276Z,5.59
2023-01-11T07:13:59.003Z,5.46
2023-01-11T07:16:25.653Z,5.52
2023-01-11T07:18:52.284Z,5.60
2023-01-11T07:21:18.916Z,5.57
2023-01-11T07:23:46.108Z,5.65
2023-01-11T07:26:14.370Z,5.54
2023-01-11T07:28:41.189Z,5.58
2023-01-11T07:31:07.839Z,5.73
2023-01-11T07:33:34.666Z,5.73
2023-01-11T07:36:05.450Z,5.75
2023-01-11T07:38:32.676Z,5.78
2023-01-11T07:40:59.472Z,5.80
2023-01-11T07:43:26.998Z,5.74
2023-01-11T07:45:53.830Z,5.75
2023-01-11T07:48:27.186Z,6.01
2023-01-11T07:50:54.710Z,5.95
2023-01-11T07:53:21.940Z,5.88
2023-01-11T07:55:48.619Z,5.89
2023-01-11T07:58:16.116Z,5.90
2023-01-11T08:00:43.178Z,5.79
2023-01-11T08:03:10.575Z,5.86
2023-01-11T08:05:37.512Z,5.91
2023-01-11T08:08:04.987Z,5.96
2023-01-11T08:10:31.814Z,5.89
2023-01-11T08:13:17.380Z,5.91
2023-01-11T08:15:44.197Z,5.92
2023-01-11T08:18:12.429Z,5.99
2023-01-11T08:20:42.189Z,5.94
2023-01-11T08:23:10.602Z,6.03
2023-01-11T08:25:37.541Z,6.06
2023-01-11T08:28:06.785Z,6.07
2023-01-11T08:30:33.656Z,6.06
2023-01-11T08:33:01.657Z,5.99
2023-01-11T08:35:28.615Z,6.09
2023-01-11T08:37:55.298Z,6.05
2023-01-11T08:40:24.067Z,6.08
2023-01-11T08:42:57.316Z,6.17
2023-01-11T08:45:24.506Z,6.15
2023-01-11T08:47:52.265Z,6.19
2023-01-11T08:50:19.927Z,6.20
2023-01-11T08:52:48.325Z,6.19
2023-01-11T08:55:14.986Z,6.26
2023-01-11T08:57:41.712Z,6.26
2023-01-11T09:00:09.406Z,6.37
2023-01-11T09:02:36.219Z,6.41
2023-01-11T09:05:03.007Z,6.43
2023-01-11T09:07:29.624Z,6.41
2023-01-11T09:09:56.322Z,6.52
2023-01-11T09:12:22.960Z,6.56
2023-01-11T09:14:49.602Z,6.59
2023-01-11T09:17:16.340Z,6.63
2023-01-11T09:19:42.983Z,6.70
2023-01-11T09:22:09.668Z,6.74
2023-01-11T09:24:36.350Z,6.78
2023-01-11T09:27:04.902Z,6.86
2023-01-11T09:29:31.975Z,6.91
2023-01-11T09:31:58.774Z,6.91
2023-01-11T09:34:27.412Z,6.93
2023-01-11T09:36:56.195Z,7.03
2023-01-11T09:39:25.936Z,7.11
2023-01-11T09:42:24.414Z,7.22
2023-01-11T09:44:56.727Z,7.28
2023-01-11T09:48:04.860Z,7.37
2023-01-11T09:50:41.895Z,7.45
2023-01-11T09:53:18.306Z,7.56
2023-01-11T09:55:47.112Z,7.59
2023-01-11T09:58:42.656Z,7.72
2023-01-11T10:01:26.023Z,7.69
2023-01-11T10:04:33.450Z,7.86
2023-01-11T10:07:01.174Z,7.94
2023-01-11T10:18:29.556Z,8.12
2023-01-11T10:19:35.981Z,8.14
2023-01-11T10:22:15.723Z,8.08
2023-01-11T10:24:49.108Z,8.21
2023-01-11T10:27:30.438Z,8.24
2023-01-11T10:30:22.436Z,8.26
2023-01-11T10:33:06.288Z,8.24
2023-01-11T10:35:59.501Z,8.34
2023-01-11T10:38:42.801Z,8.37
2023-01-11T10:41:38.884Z,8.38
2023-01-11T10:44:37.949Z,8.44
2023-01-11T10:47:11.422Z,8.44
2023-01-11T10:49:51.761Z,8.46
2023-01-11T10:52:32.765Z,8.52
2023-01-11T10:55:01.203Z,8.52
2023-01-11T10:57:59.400Z,8.57
2023-01-11T11:00:35.546Z,8.63
2023-01-11T11:03:08.028Z,8.65
2023-01-11T11:06:08.267Z,8.71
2023-01-11T11:08:57.708Z,8.74
2023-01-11T11:11:30.499Z,8.79
2023-01-11T11:14:09.136Z,8.83
2023-01-11T11:16:46.034Z,8.88
2023-01-11T11:19:18.100Z,8.93
2023-01-11T11:21:46.793Z,8.91
2023-01-11T11:24:22.866Z,9.03
2023-01-11T11:26:56.443Z,9.01
2023-01-11T11:29:29.272Z,9.09
2023-01-11T11:31:59.045Z,9.12
2023-01-11T11:34:27.594Z,9.13
2023-01-11T11:36:58.015Z,9.14
2023-01-11T11:39:31.771Z,9.23
2023-01-11T11:42:15.957Z,9.28
2023-01-11T11:44:42.870Z,9.23
2023-01-11T11:47:15.976Z,9.35
2023-01-11T11:49:43.267Z,9.33
2023-01-11T11:52:16.362Z,9.42
2023-01-11T11:54:52.908Z,9.41
2023-01-11T11:57:25.768Z,9.48
2023-01-11T12:00:07.626Z,9.53
2023-01-11T12:02:36.501Z,9.60
2023-01-11T12:05:09.236Z,9.60
2023-01-11T12:07:49.755Z,9.68
2023-01-11T12:10:23.952Z,9.69
2023-01-11T12:12:56.716Z,9.75
2023-01-11T12:15:26.482Z,9.78
2023-01-11T12:17:54.591Z,9.78
2023-01-11T12:20:28.115Z,9.85
2023-01-11T12:23:30.233Z,9.89
2023-01-11T12:26:09.442Z,9.91
2023-01-11T12:28:54.604Z,9.94
2023-01-11T12:31:48.742Z,9.97
2023-01-11T12:34:35.393Z,10.08
2023-01-11T12:37:13.249Z,10.19
2023-01-11T12:39:52.147Z,10.28
2023-01-11T12:42:27.901Z,10.34
2023-01-11T12:45:09.783Z,10.41
2023-01-11T12:48:02.416Z,10.46
2023-01-11T12:50:47.048Z,10.45
2023-01-11T12:53:53.259Z,10.51
2023-01-11T12:56:50.230Z,10.55
2023-01-11T12:59:19.692Z,10.56
2023-01-11T13:01:49.430Z,10.60
2023-01-11T13:04:33.277Z,10.63
2023-01-11T13:07:12.309Z,10.67
2023-01-11T13:09:47.873Z,10.69
2023-01-11T13:12:14.490Z,10.74
2023-01-11T13:14:59.930Z,10.73
2023-01-11T13:17:31.365Z,10.76
2023-01-11T13:20:07.421Z,10.77
2023-01-11T13:22:38.971Z,10.80
2023-01-11T13:25:17.036Z,10.72
2023-01-11T13:27:45.151Z,10.78
2023-01-11T13:30:14.013Z,10.83
2023-01-11T13:32:43.331Z,10.84
2023-01-11T13:35:21.982Z,10.84
2023-01-11T13:38:02.554Z,10.79
2023-01-11T13:40:34.575Z,10.88
2023-01-11T13:43:10.241Z,10.88
2023-01-11T13:45:44.115Z,10.91
2023-01-11T13:48:28.593Z,10.91
2023-01-11T13:51:02.752Z,10.91
2023-01-11T13:53:44.743Z,10.90
2023-01-11T13:56:18.648Z,10.82
2023-01-11T13:58:50.942Z,10.91
2023-01-11T14:01:24.386Z,10.88
2023-01-11T14:04:00.797Z,10.88
2023-01-11T14:06:50.948Z,10.94
2023-01-11T14:09:32.866Z,10.89
2023-01-11T14:12:18.446Z,10.92
2023-01-11T14:14:50.956Z,10.90
2023-01-11T14:17:36.579Z,10.82
2023-01-11T14:20:20.326Z,10.78
2023-01-11T14:23:08.574Z,10.79
2023-01-11T14:25:46.726Z,10.66
2023-01-11T14:28:35.886Z,10.67
2023-01-11T14:31:21.347Z,10.51
2023-01-11T14:33:58.119Z,10.54
2023-01-11T14:36:49.311Z,10.53
2023-01-11T14:39:15.921Z,10.46
2023-01-11T14:42:32.203Z,10.37
2023-01-11T14:45:13.516Z,10.27
2023-01-11T14:48:03.425Z,10.14
2023-01-11T14:50:46.538Z,10.04
2023-01-11T14:53:19.788Z,9.99
2023-01-11T14:55:47.841Z,9.92
2023-01-11T14:58:27.012Z,9.87
2023-01-11T15:00:56.469Z,9.81
2023-01-11T15:03:23.089Z,9.76
2023-01-11T15:06:00.932Z,9.66
2023-01-11T15:08:40.954Z,9.47
2023-01-11T15:11:32.076Z,9.56
2023-01-11T15:14:03.656Z,9.49
2023-01-11T15:16:51.489Z,9.41
2023-01-11T15:19:29.211Z,9.35
2023-01-11T15:22:01.080Z,9.23
2023-01-11T15:24:34.220Z,9.28
2023-01-11T15:27:02.582Z,9.20
2023-01-11T15:29:37.460Z,9.15
2023-01-11T15:32:35.017Z,9.18
2023-01-11T15:35:24.006Z,9.14
2023-01-11T15:38:18.517Z,9.16
2023-01-11T15:40:48.213Z,9.11
2023-01-11T15:43:33.581Z,9.09
2023-01-11T15:46:53.043Z,9.09
2023-01-11T15:49:38.752Z,9.13
2023-01-11T15:52:23.603Z,9.01
2023-01-11T15:54:56.052Z,9.04
2023-01-11T15:57:44.362Z,9.04
2023-01-11T16:00:20.360Z,8.97
2023-01-11T16:03:10.154Z,8.87
2023-01-11T16:05:44.961Z,8.83
2023-01-11T16:08:30.368Z,8.79
2023-01-11T16:11:29.160Z,8.78
2023-01-11T16:14:14.607Z,8.79
2023-01-11T16:16:43.796Z,8.77
2023-01-11T16:19:21.773Z,8.81
2023-01-11T16:21:51.720Z,8.75
2023-01-11T16:24:20.681Z,8.58
2023-01-11T16:26:57.194Z,8.59
2023-01-11T16:29:28.915Z,8.59
2023-01-11T16:31:57.507Z,8.63
2023-01-11T16:34:26.075Z,8.67
2023-01-11T16:36:52.873Z,8.55
2023-01-11T16:39:23.330Z,8.58
2023-01-11T16:42:01.794Z,8.55
2023-01-11T16:45:05.497Z,8.56
2023-01-11T16:47:32.185Z,8.51
2023-01-11T16:50:28.584Z,8.50
2023-01-11T16:53:00.925Z,8.45
2023-01-11T16:55:34.036Z,8.39
2023-01-11T16:58:04.219Z,8.46
2023-01-11T17:00:38.136Z,8.45
2023-01-11T17:03:19.513Z,8.45
2023-01-11T17:05:57.760Z,8.28
2023-01-11T17:08:34.835Z,8.28
2023-01-11T17:11:18.728Z,8.27
2023-01-11T17:14:03.421Z,8.36
2023-01-11T17:16:39.526Z,8.37
2023-01-11T17:19:12.907Z,8.33
2023-01-11T17:21:39.779Z,8.05
2023-01-11T17:24:07.870Z,8.28
2023-01-11T17:26:42.921Z,8.16
2023-01-11T17:29:16.574Z,8.25
2023-01-11T17:31:43.288Z,8.23
2023-01-11T17:34:25.720Z,8.29
2023-01-11T17:36:53.954Z,8.22
2023-01-11T17:39:33.398Z,8.19
2023-01-11T17:42:21.280Z,8.29
2023-01-11T17:45:09.084Z,8.24
2023-01-11T17:47:39.064Z,8.27
2023-01-11T17:50:07.092Z,8.32
2023-01-11T17:52:43.770Z,8.33
2023-01-11T17:55:17.287Z,8.39
2023-01-11T17:57:44.167Z,8.36
2023-01-11T18:00:24.972Z,8.39
2023-01-11T18:02:53.453Z,8.33
2023-01-11T18:05:24.959Z,8.37
2023-01-11T18:07:56.906Z,8.16
2023-01-11T18:10:33.983Z,8.37
2023-01-11T18:13:00.891Z,8.35
2023-01-11T18:15:33.653Z,8.03
2023-01-11T18:18:01.545Z,8.26
2023-01-11T18:20:40.969Z,8.19
2023-01-11T18:23:22.751Z,8.10
2023-01-11T18:25:49.677Z,8.21
2023-01-11T18:28:21.272Z,8.21
2023-01-11T18:30:52.560Z,8.17
2023-01-11T18:33:24.178Z,8.10
2023-01-11T18:35:53.229Z,8.11
2023-01-11T18:38:28.855Z,8.09
2023-01-11T18:40:57.330Z,8.04
2023-01-11T18:43:31.157Z,8.12
2023-01-11T18:45:57.883Z,8.12
2023-01-11T18:48:24.549Z,7.97
2023-01-11T18:50:52.242Z,7.88
2023-01-11T18:53:18.983Z,7.94
2023-01-11T18:55:46.478Z,7.96
2023-01-11T18:58:13.248Z,7.96
2023-01-11T19:00:41.479Z,7.91
2023-01-11T19:03:10.527Z,8.02
2023-01-11T19:05:37.361Z,7.88
2023-01-11T19:08:04.280Z,7.95
2023-01-11T19:10:30.973Z,7.85
2023-01-11T19:12:58.485Z,7.82
2023-01-11T19:15:25.386Z,7.86
2023-01-11T19:17:52.184Z,7.91
2023-01-11T19:20:19.047Z,7.90
2023-01-11T19:22:45.803Z,7.87
2023-01-11T19:25:12.536Z,7.94
2023-01-11T19:27:39.361Z,7.93
2023-01-11T19:30:06.853Z,7.96
2023-01-11T19:32:33.831Z,7.88
2023-01-11T19:35:00.749Z,7.89
2023-01-11T19:37:28.404Z,7.86
2023-01-11T19:39:55.165Z,7.80
2023-01-11T19:42:23.892Z,7.80
2023-01-11T19:44:51.535Z,7.75
2023-01-11T19:47:21.997Z,7.34
2023-01-11T19:49:48.750Z,7.73
2023-01-11T19:52:19.233Z,7.83
2023-01-11T19:54:46.916Z,7.67
2023-01-11T19:57:18.071Z,7.81
2023-01-11T19:59:44.932Z,7.81
2023-01-11T20:02:13.862Z,7.78
2023-01-11T20:04:41.177Z,7.75
2023-01-11T20:07:09.867Z,7.86
2023-01-11T20:09:40.039Z,7.54
2023-01-11T20:12:09.454Z,7.71
2023-01-11T20:14:36.595Z,7.73
2023-01-11T20:17:03.600Z,7.74
2023-01-11T20:19:30.370Z,7.69
2023-01-11T20:21:58.365Z,7.70
2023-01-11T20:24:28.571Z,7.70
2023-01-11T20:27:01.251Z,7.70
2023-01-11T20:29:28.323Z,7.59
2023-01-11T20:31:55.840Z,7.68
2023-01-11T20:34:23.510Z,7.65
2023-01-11T20:36:50.724Z,7.69
2023-01-11T20:39:18.399Z,7.65
2023-01-11T20:41:48.650Z,7.65
2023-01-11T20:44:16.185Z,7.63
2023-01-11T20:46:44.057Z,7.61
2023-01-11T20:49:11.983Z,7.54
2023-01-11T20:51:39.013Z,7.62
2023-01-11T20:54:06.702Z,7.66
2023-01-11T20:56:33.831Z,7.68
2023-01-11T20:59:03.578Z,7.59
2023-01-11T21:01:30.821Z,7.41
2023-01-11T21:04:00.506Z,7.55
2023-01-11T21:06:27.791Z,7.54
2023-01-11T21:08:56.307Z,7.55
2023-01-11T21:11:23.695Z,7.57
2023-01-11T21:13:55.560Z,7.62
2023-01-11T21:16:24.663Z,7.54
2023-01-11T21:18:56.321Z,7.63
2023-01-11T21:21:23.852Z,7.49
2023-01-11T21:23:56.998Z,7.61
2023-01-11T21:26:25.254Z,7.59
2023-01-11T21:28:55.661Z,7.57
2023-01-11T21:31:23.125Z,7.54
2023-01-11T21:33:50.333Z,7.48
2023-01-11T21:36:20.140Z,7.55
2023-01-11T21:38:47.180Z,7.56
2023-01-11T21:41:16.743Z,7.57
2023-01-11T21:43:43.711Z,7.49
2023-01-11T21:46:11.823Z,7.59
2023-01-11T21:48:39.140Z,7.57
2023-01-11T21:51:10.059Z,7.48
2023-01-11T21:53:43.993Z,7.56
2023-01-11T21:56:10.704Z,7.54
2023-01-11T21:58:37.440Z,7.60
2023-01-11T22:01:11.898Z,7.61
2023-01-11T22:03:39.569Z,7.61
2023-01-11T22:06:06.590Z,7.60
2023-01-11T22:08:38.514Z,7.64
2023-01-11T22:11:06.948Z,7.51
2023-01-11T22:13:35.830Z,7.64
2023-01-11T22:16:08.319Z,7.53
2023-01-11T22:18:35.920Z,7.58
2023-01-11T22:21:20.968Z,7.55
2023-01-11T22:23:48.445Z,7.67
2023-01-11T22:26:17.857Z,7.69
2023-01-11T22:29:05.170Z,7.58
2023-01-11T22:31:33.210Z,7.64
2023-01-11T22:34:00.800Z,7.68
2023-01-11T22:36:28.548Z,7.54
2023-01-11T22:38:57.062Z,7.68
2023-01-11T22:41:25.883Z,7.63
2023-01-11T22:43:53.808Z,7.57
2023-01-11T22:46:23.457Z,7.58
2023-01-11T22:48:51.730Z,7.40
2023-01-11T22:51:21.421Z,7.58
2023-01-11T22:53:53.007Z,7.56
2023-01-11T22:56:24.949Z,7.61
2023-01-11T22:58:53.469Z,7.54
2023-01-11T23:01:22.861Z,7.55
2023-01-11T23:03:50.503Z,7.53
2023-01-11T23:06:22.965Z,7.52
2023-01-11T23:08:49.636Z,7.40
2023-01-11T23:11:39.158Z,7.46
2023-01-11T23:14:08.852Z,7.41
2023-01-11T23:16:36.543Z,7.43
2023-01-11T23:19:06.339Z,7.26
2023-01-11T23:21:33.654Z,7.37
2023-01-11T23:24:01.847Z,7.33
2023-01-11T23:26:29.239Z,7.29
2023-01-11T23:28:56.392Z,7.25
2023-01-11T23:31:24.987Z,7.28
2023-01-11T23:33:54.651Z,7.15
2023-01-11T23:36:26.699Z,7.22
2023-01-11T23:38:53.366Z,7.13
2023-01-11T23:41:40.187Z,7.22
2023-01-11T23:44:12.475Z,7.22
2023-01-11T23:46:58.871Z,7.22
2023-01-11T23:49:26.307Z,7.14
2023-01-11T23:51:54.217Z,7.11
2023-01-11T23:54:21.308Z,7.04
2023-01-11T23:56:49.018Z,6.98
2023-01-11T23:59:15.685Z,6.93
